createdAt,value
2023-01-25T00:00:00.899Z,5.20
2023-01-25T00:02:30.693Z,5.57
2023-01-25T00:05:01.148Z,5.40
2023-01-25T00:07:28.168Z,5.55
2023-01-25T00:09:55.558Z,4.93
2023-01-25T00:12:22.654Z,5.28
2023-01-25T00:14:51.274Z,6.30
2023-01-25T00:17:18.215Z,5.28
2023-01-25T00:19:45.640Z,5.38
2023-01-25T00:22:12.453Z,5.40
2023-01-25T00:24:39.709Z,5.15
2023-01-25T00:27:07.930Z,5.57
2023-01-25T00:29:37.234Z,5.53
2023-01-25T00:32:42.755Z,5.53
2023-01-25T00:35:12.427Z,5.40
2023-01-25T00:37:42.209Z,5.40
2023-01-25T00:40:11.817Z,5.72
2023-01-25T00:42:38.773Z,5.18
2023-01-25T00:45:07.462Z,4.95
2023-01-25T00:47:35.929Z,5.70
2023-01-25T00:50:03.411Z,5.20
2023-01-25T00:52:30.305Z,5.30
2023-01-25T00:54:57.526Z,5.82
2023-01-25T00:57:24.473Z,5.40
2023-01-25T00:59:51.721Z,5.78
2023-01-25T01:02:18.762Z,6.05
2023-01-25T01:04:48.651Z,6.00
2023-01-25T01:07:15.822Z,5.70
2023-01-25T01:09:43.101Z,5.15
2023-01-25T01:12:10.322Z,5.30
2023-01-25T01:14:37.973Z,5.57
2023-01-25T01:17:05.024Z,5.30
2023-01-25T01:19:32.362Z,5.82
2023-01-25T01:22:00.810Z,6.03
2023-01-25T01:24:28.306Z,5.35
2023-01-25T01:26:55.331Z,5.70
2023-01-25T01:29:22.698Z,5.95
2023-01-25T01:31:51.328Z,5.60
2023-01-25T01:34:19.024Z,5.38
2023-01-25T01:36:46.101Z,6.13
2023-01-25T01:39:14.778Z,6.30
2023-01-25T01:41:41.704Z,6.35
2023-01-25T01:44:16.580Z,5.00
2023-01-25T01:46:52.846Z,5.88
2023-01-25T01:49:24.136Z,5.60
2023-01-25T01:51:55.859Z,5.97
2023-01-25T01:54:28.989Z,5.28
2023-01-25T01:57:01.351Z,6.82
2023-01-25T01:59:34.534Z,6.00
2023-01-25T02:02:01.774Z,5.38
2023-01-25T02:04:30.130Z,5.95
2023-01-25T02:07:03.142Z,5.35
2023-01-25T02:09:33.962Z,6.30
2023-01-25T02:12:01.305Z,6.78
2023-01-25T02:14:29.944Z,6.68
2023-01-25T02:16:57.608Z,5.67
2023-01-25T02:19:36.857Z,6.53
2023-01-25T02:22:10.164Z,6.22
2023-01-25T02:24:46.650Z,6.82
2023-01-25T02:27:15.245Z,6.35
2023-01-25T02:29:43.121Z,6.45
2023-01-25T02:32:10.126Z,6.28
2023-01-25T02:34:37.666Z,6.38
2023-01-25T02:37:04.691Z,6.78
2023-01-25T02:39:31.943Z,6.35
2023-01-25T02:41:58.910Z,6.57
2023-01-25T02:44:31.334Z,6.35
2023-01-25T02:46:59.771Z,6.72
2023-01-25T02:49:27.009Z,6.65
2023-01-25T02:51:57.335Z,6.82
2023-01-25T02:54:26.237Z,6.30
2023-01-25T02:56:53.352Z,6.63
2023-01-25T02:59:20.838Z,6.63
2023-01-25T03:01:49.816Z,7.72
2023-01-25T03:04:17.054Z,6.75
2023-01-25T03:06:44.024Z,6.88
2023-01-25T03:09:11.986Z,6.78
2023-01-25T03:11:39.024Z,6.85
2023-01-25T03:14:06.627Z,6.90
2023-01-25T03:16:33.930Z,6.97
2023-01-25T03:19:02.467Z,6.70
2023-01-25T03:21:29.577Z,7.23
2023-01-25T03:23:58.800Z,7.50
2023-01-25T03:26:27.110Z,7.13
2023-01-25T03:28:54.379Z,6.22
2023-01-25T03:31:21.572Z,6.78
2023-01-25T03:33:49.848Z,7.03
2023-01-25T03:36:18.519Z,6.65
2023-01-25T03:38:45.793Z,7.57
2023-01-25T03:41:13.956Z,7.13
2023-01-25T03:43:41.137Z,8.98
2023-01-25T03:46:08.312Z,7.57
2023-01-25T03:48:35.523Z,8.25
2023-01-25T03:51:02.563Z,7.47
2023-01-25T03:53:32.128Z,6.90
2023-01-25T03:56:01.303Z,6.32
2023-01-25T03:58:29.756Z,6.28
2023-01-25T04:00:58.727Z,6.57
2023-01-25T04:03:26.703Z,6.40
2023-01-25T04:05:56.107Z,6.88
2023-01-25T04:08:24.697Z,6.57
2023-01-25T04:10:54.794Z,6.78
2023-01-25T04:13:24.048Z,6.15
2023-01-25T04:15:51.679Z,6.68
2023-01-25T04:18:19.454Z,6.88
2023-01-25T04:20:46.419Z,6.70
2023-01-25T04:23:13.685Z,6.63
2023-01-25T04:25:40.649Z,6.90
2023-01-25T04:28:09.206Z,7.50
2023-01-25T04:30:36.190Z,7.22
2023-01-25T04:33:04.653Z,7.38
2023-01-25T04:35:31.925Z,7.55
2023-01-25T04:38:00.126Z,6.97
2023-01-25T04:40:27.452Z,6.50
2023-01-25T04:42:54.743Z,6.50
2023-01-25T04:45:23.073Z,6.97
2023-01-25T04:47:56.645Z,6.68
2023-01-25T04:50:23.694Z,6.85
2023-01-25T04:52:51.293Z,7.10
2023-01-25T04:55:18.389Z,7.00
2023-01-25T04:57:45.956Z,8.63
2023-01-25T05:00:14.422Z,9.00
2023-01-25T05:02:43.005Z,6.90
2023-01-25T05:05:10.463Z,7.30
2023-01-25T05:07:38.156Z,7.13
2023-01-25T05:10:06.640Z,7.30
2023-01-25T05:12:33.952Z,7.90
2023-01-25T05:15:00.886Z,8.10
2023-01-25T05:17:28.323Z,6.70
2023-01-25T05:19:56.630Z,6.97
2023-01-25T05:22:23.991Z,6.85
2023-01-25T05:24:51.149Z,7.22
2023-01-25T05:27:20.379Z,10.13
2023-01-25T05:29:47.755Z,12.95
2023-01-25T05:32:16.602Z,8.88
2023-01-25T05:34:44.706Z,8.05
2023-01-25T05:37:14.979Z,8.55
2023-01-25T05:39:42.003Z,8.23
2023-01-25T05:42:12.062Z,7.28
2023-01-25T05:44:39.120Z,7.13
2023-01-25T05:47:06.583Z,7.50
2023-01-25T05:49:33.465Z,6.97
2023-01-25T05:52:00.815Z,8.27
2023-01-25T05:54:29.479Z,7.40
2023-01-25T05:56:59.705Z,7.63
2023-01-25T05:59:26.626Z,8.20
2023-01-25T06:01:53.983Z,8.18
2023-01-25T06:04:20.891Z,8.00
2023-01-25T06:06:48.151Z,7.85
2023-01-25T06:09:15.532Z,8.80
2023-01-25T06:11:47.604Z,8.27
2023-01-25T06:14:15.234Z,6.75
2023-01-25T06:16:42.476Z,7.65
2023-01-25T06:19:09.588Z,8.35
2023-01-25T06:21:38.571Z,7.78
2023-01-25T06:24:06.413Z,7.82
2023-01-25T06:26:34.479Z,6.90
2023-01-25T06:29:05.090Z,8.98
2023-01-25T06:31:32.436Z,9.82
2023-01-25T06:34:01.101Z,7.88
2023-01-25T06:36:28.474Z,8.75
2023-01-25T06:38:55.411Z,9.20
2023-01-25T06:41:23.185Z,9.90
2023-01-25T06:43:51.374Z,8.60
2023-01-25T06:46:20.296Z,9.20
2023-01-25T06:48:48.506Z,9.80
2023-01-25T06:51:17.257Z,8.48
2023-01-25T06:53:45.884Z,7.93
2023-01-25T06:56:14.828Z,7.28
2023-01-25T06:58:41.823Z,8.65
2023-01-25T07:01:13.446Z,8.52
2023-01-25T07:03:42.206Z,8.63
2023-01-25T07:06:11.117Z,8.55
2023-01-25T07:08:39.731Z,8.68
2023-01-25T07:11:12.196Z,8.32
2023-01-25T07:13:40.201Z,9.05
2023-01-25T07:16:10.948Z,8.40
2023-01-25T07:18:38.118Z,8.32
2023-01-25T07:21:08.957Z,7.82
2023-01-25T07:23:37.967Z,7.55
2023-01-25T07:26:06.147Z,10.10
2023-01-25T07:28:33.774Z,8.38
2023-01-25T07:31:05.900Z,9.85
2023-01-25T07:33:33.035Z,9.18
2023-01-25T07:36:00.622Z,8.35
2023-01-25T07:38:30.428Z,7.53
2023-01-25T07:40:57.793Z,8.13
2023-01-25T07:43:25.309Z,10.25
2023-01-25T07:45:52.538Z,8.82
2023-01-25T07:48:20.938Z,10.07
2023-01-25T07:50:49.702Z,8.90
2023-01-25T07:53:19.408Z,9.05
2023-01-25T07:55:48.768Z,10.18
2023-01-25T07:58:17.849Z,9.10
2023-01-25T08:00:45.485Z,9.57
2023-01-25T08:03:14.526Z,9.70
2023-01-25T08:05:44.558Z,8.55
2023-01-25T08:08:11.582Z,8.68
2023-01-25T08:10:39.000Z,9.23
2023-01-25T08:13:07.691Z,10.38
2023-01-25T08:15:35.132Z,9.80
2023-01-25T08:18:02.121Z,8.55
2023-01-25T08:20:29.397Z,8.43
2023-01-25T08:22:56.569Z,8.68
2023-01-25T08:25:23.862Z,9.20
2023-01-25T08:27:52.224Z,8.40
2023-01-25T08:30:21.073Z,8.77
2023-01-25T08:32:48.044Z,8.73
2023-01-25T08:35:15.508Z,8.00
2023-01-25T08:37:42.419Z,9.10
2023-01-25T08:40:13.810Z,9.13
2023-01-25T08:42:43.132Z,9.38
2023-01-25T08:45:11.288Z,8.65
2023-01-25T08:47:39.897Z,8.85
2023-01-25T08:50:08.522Z,9.77
2023-01-25T08:52:35.750Z,8.38
2023-01-25T08:55:03.159Z,8.75
2023-01-25T08:57:31.942Z,9.13
2023-01-25T09:02:26.746Z,9.52
2023-01-25T09:04:55.332Z,8.63
2023-01-25T09:07:22.329Z,9.90
2023-01-25T09:09:49.547Z,10.00
2023-01-25T09:12:16.520Z,9.77
2023-01-25T09:14:43.890Z,10.13
2023-01-25T09:17:10.791Z,8.32
2023-01-25T09:19:38.077Z,8.57
2023-01-25T09:22:06.460Z,8.45
2023-01-25T09:24:36.997Z,9.88
2023-01-25T09:27:04.192Z,10.73
2023-01-25T09:29:31.536Z,8.73
2023-01-25T09:31:58.801Z,9.15
2023-01-25T09:34:26.471Z,8.52
2023-01-25T09:36:53.499Z,9.38
2023-01-25T09:39:22.359Z,9.18
2023-01-25T09:42:21.577Z,8.85
2023-01-25T09:45:04.801Z,8.35
2023-01-25T09:47:40.475Z,10.15
2023-01-25T09:50:33.233Z,10.13
2023-01-25T09:53:22.354Z,8.70
2023-01-25T09:55:55.575Z,8.40
2023-01-25T09:58:28.337Z,8.55
2023-01-25T10:01:09.669Z,9.88
2023-01-25T10:03:48.336Z,8.55
2023-01-25T10:06:17.665Z,9.00
2023-01-25T10:08:52.920Z,8.60
2023-01-25T10:11:25.977Z,9.50
2023-01-25T10:13:56.337Z,10.30
2023-01-25T10:16:29.996Z,10.57
2023-01-25T10:19:19.907Z,9.30
2023-01-25T10:21:53.762Z,10.43
2023-01-25T10:24:43.739Z,9.80
2023-01-25T10:27:29.389Z,14.48
2023-01-25T10:30:00.136Z,16.13
2023-01-25T10:32:31.900Z,11.65
2023-01-25T10:35:10.518Z,11.50
2023-01-25T10:37:39.061Z,10.50
2023-01-25T10:40:17.747Z,9.27
2023-01-25T10:42:51.566Z,9.40
2023-01-25T10:45:20.941Z,8.52
2023-01-25T10:47:52.705Z,8.85
2023-01-25T10:50:47.638Z,8.70
2023-01-25T10:53:27.101Z,9.05
2023-01-25T10:56:05.737Z,9.02
2023-01-25T10:58:36.593Z,9.68
2023-01-25T11:01:07.119Z,9.20
2023-01-25T11:03:37.228Z,9.15
2023-01-25T11:06:04.969Z,9.52
2023-01-25T11:08:37.597Z,8.95
2023-01-25T11:11:25.553Z,9.07
2023-01-25T11:13:55.368Z,9.10
2023-01-25T11:16:41.648Z,9.52
2023-01-25T11:19:29.261Z,8.20
2023-01-25T11:21:58.622Z,7.85
2023-01-25T11:24:28.102Z,8.13
2023-01-25T11:27:14.586Z,9.27
2023-01-25T11:29:43.188Z,9.95
2023-01-25T11:32:20.412Z,9.45
2023-01-25T11:34:48.923Z,9.45
2023-01-25T11:37:29.228Z,9.60
2023-01-25T11:40:07.939Z,9.13
2023-01-25T11:42:43.594Z,10.80
2023-01-25T11:45:45.719Z,10.68
2023-01-25T11:48:26.909Z,9.60
2023-01-25T11:51:02.464Z,9.13
2023-01-25T11:54:09.494Z,9.27
2023-01-25T11:56:48.615Z,8.25
2023-01-25T11:59:36.391Z,7.95
2023-01-25T12:02:24.849Z,8.27
2023-01-25T12:05:21.911Z,8.87
2023-01-25T12:07:59.073Z,8.82
2023-01-25T12:10:34.304Z,8.55
2023-01-25T12:13:09.589Z,9.05
2023-01-25T12:15:55.837Z,8.20
2023-01-25T12:18:45.329Z,9.90
2023-01-25T12:21:31.191Z,10.27
2023-01-25T12:24:15.312Z,9.10
2023-01-25T12:26:54.484Z,9.50
2023-01-25T12:29:26.587Z,9.30
2023-01-25T12:31:58.591Z,9.25
2023-01-25T12:34:33.814Z,9.02
2023-01-25T12:37:08.278Z,9.60
2023-01-25T12:39:42.560Z,10.25
2023-01-25T12:42:17.563Z,9.75
2023-01-25T12:44:49.441Z,9.00
2023-01-25T12:47:22.391Z,9.07
2023-01-25T12:49:55.820Z,10.30
2023-01-25T12:52:31.882Z,9.50
2023-01-25T12:55:01.901Z,9.05
2023-01-25T12:57:36.515Z,9.45
2023-01-25T13:00:17.096Z,9.10
2023-01-25T13:03:04.749Z,9.15
2023-01-25T13:05:39.451Z,10.15
2023-01-25T13:08:30.318Z,10.15
2023-01-25T13:11:10.259Z,9.77
2023-01-25T13:16:23.916Z,9.88
2023-01-25T13:18:50.943Z,9.30
2023-01-25T13:21:40.809Z,8.50
2023-01-25T13:24:20.588Z,8.68
2023-01-25T13:27:03.675Z,10.25
2023-01-25T13:29:59.007Z,8.60
2023-01-25T13:33:03.653Z,8.70
2023-01-25T13:35:42.059Z,9.18
2023-01-25T13:38:35.866Z,9.68
2023-01-25T13:41:17.864Z,8.18
2023-01-25T13:44:08.141Z,8.75
2023-01-25T13:46:35.745Z,8.93
2023-01-25T13:49:08.138Z,9.27
2023-01-25T13:51:39.407Z,9.43
2023-01-25T13:54:16.022Z,10.38
2023-01-25T13:56:43.246Z,10.18
2023-01-25T13:59:24.399Z,9.07
2023-01-25T14:01:52.553Z,9.63
2023-01-25T14:04:19.885Z,9.23
2023-01-25T14:06:47.114Z,9.45
2023-01-25T14:09:17.651Z,10.05
2023-01-25T14:11:49.471Z,10.32
2023-01-25T14:14:20.949Z,8.73
2023-01-25T14:17:02.059Z,9.63
2023-01-25T14:19:30.577Z,9.65
2023-01-25T14:22:13.236Z,8.97
2023-01-25T14:24:42.090Z,8.60
2023-01-25T14:27:14.478Z,9.15
2023-01-25T14:29:42.110Z,9.68
2023-01-25T14:32:16.993Z,10.98
2023-01-25T14:34:44.406Z,10.48
2023-01-25T14:37:16.629Z,10.50
2023-01-25T14:39:46.563Z,9.90
2023-01-25T14:42:13.775Z,12.30
2023-01-25T14:44:45.732Z,14.88
2023-01-25T14:49:50.581Z,10.55
2023-01-25T14:52:19.976Z,11.23
2023-01-25T14:54:52.409Z,10.55
2023-01-25T14:57:33.049Z,10.30
2023-01-25T15:00:03.809Z,9.25
2023-01-25T15:02:38.065Z,10.52
2023-01-25T15:05:16.392Z,9.85
2023-01-25T15:07:45.993Z,10.38
2023-01-25T15:10:23.267Z,10.95
2023-01-25T15:13:04.132Z,10.85
2023-01-25T15:15:35.813Z,9.63
2023-01-25T15:18:03.208Z,10.70
2023-01-25T15:20:36.110Z,9.25
2023-01-25T15:23:22.023Z,10.50
2023-01-25T15:25:54.957Z,9.82
2023-01-25T15:28:23.524Z,9.48
2023-01-25T15:30:51.088Z,10.63
2023-01-25T15:33:22.035Z,10.25
2023-01-25T15:35:50.248Z,9.00
2023-01-25T15:38:17.656Z,10.50
2023-01-25T15:40:45.541Z,10.27
2023-01-25T15:43:14.652Z,10.45
2023-01-25T15:45:43.509Z,9.82
2023-01-25T15:48:17.296Z,11.35
2023-01-25T15:50:44.752Z,10.60
2023-01-25T15:53:15.184Z,10.65
2023-01-25T15:55:44.587Z,19.45
2023-01-25T16:00:45.599Z,11.93
2023-01-25T16:03:13.101Z,11.43
2023-01-25T16:05:40.474Z,10.55
2023-01-25T16:08:15.611Z,10.07
2023-01-25T16:10:43.014Z,10.65
2023-01-25T16:13:10.304Z,10.57
2023-01-25T16:15:40.022Z,10.82
2023-01-25T16:18:07.136Z,10.45
2023-01-25T16:20:34.206Z,10.77
2023-01-25T16:23:01.429Z,10.93
2023-01-25T16:25:28.721Z,11.73
2023-01-25T16:27:55.587Z,11.55
2023-01-25T16:30:25.892Z,12.57
2023-01-25T16:32:54.260Z,12.50
2023-01-25T16:35:21.519Z,11.00
2023-01-25T16:37:48.717Z,10.82
2023-01-25T16:40:23.158Z,10.85
2023-01-25T16:42:50.671Z,10.25
2023-01-25T16:45:19.456Z,10.63
2023-01-25T16:47:47.654Z,9.80
2023-01-25T16:50:18.067Z,10.40
2023-01-25T16:52:46.036Z,10.25
2023-01-25T16:55:14.335Z,14.63
2023-01-25T16:57:43.489Z,20.00
2023-01-25T17:00:13.917Z,11.60
2023-01-25T17:02:56.968Z,9.73
2023-01-25T17:05:33.553Z,11.95
2023-01-25T17:08:00.689Z,11.07
2023-01-25T17:10:29.726Z,10.18
2023-01-25T17:12:56.776Z,10.90
2023-01-25T17:15:24.019Z,11.23
2023-01-25T17:17:50.877Z,11.00
2023-01-25T17:20:18.189Z,11.48
2023-01-25T17:22:50.987Z,12.52
2023-01-25T17:25:18.433Z,12.73
2023-01-25T17:27:45.403Z,12.75
2023-01-25T17:30:13.629Z,12.88
2023-01-25T17:32:40.994Z,12.98
2023-01-25T17:35:08.980Z,11.85
2023-01-25T17:37:35.980Z,12.10
2023-01-25T17:40:05.201Z,12.27
2023-01-25T17:42:33.000Z,17.73
2023-01-25T17:45:00.225Z,12.85
2023-01-25T17:47:27.224Z,12.50
2023-01-25T17:49:54.524Z,14.45
2023-01-25T17:52:21.389Z,17.05
2023-01-25T17:54:48.972Z,13.52
2023-01-25T17:57:23.702Z,10.52
2023-01-25T17:59:51.069Z,12.07
2023-01-25T18:02:18.258Z,11.98
2023-01-25T18:04:45.521Z,13.15
2023-01-25T18:07:13.428Z,14.55
2023-01-25T18:09:43.393Z,15.40
2023-01-25T18:12:12.061Z,14.05
2023-01-25T18:14:43.958Z,13.95
2023-01-25T18:17:12.526Z,16.35
2023-01-25T18:19:39.737Z,15.77
2023-01-25T18:22:06.736Z,17.67
2023-01-25T18:24:35.413Z,20.67
2023-01-25T18:27:05.468Z,20.38
2023-01-25T18:29:55.518Z,20.52
2023-01-25T18:32:22.620Z,20.63
2023-01-25T18:34:49.995Z,18.73
2023-01-25T18:37:25.614Z,19.58
2023-01-25T18:39:54.656Z,18.90
2023-01-25T18:42:23.643Z,18.27
2023-01-25T18:44:50.989Z,18.05
2023-01-25T18:47:21.137Z,13.85
2023-01-25T18:49:50.490Z,15.30
2023-01-25T18:52:18.690Z,13.73
2023-01-25T18:54:46.296Z,13.35
2023-01-25T18:57:13.933Z,11.50
2023-01-25T18:59:42.084Z,12.65
2023-01-25T19:02:11.084Z,11.38
2023-01-25T19:04:40.362Z,11.18
2023-01-25T19:07:07.518Z,10.80
2023-01-25T19:09:34.946Z,10.05
2023-01-25T19:12:02.048Z,10.85
2023-01-25T19:14:30.490Z,10.00
2023-01-25T19:16:57.788Z,8.30
2023-01-25T19:19:25.098Z,8.82
2023-01-25T19:21:53.385Z,7.03
2023-01-25T19:24:21.807Z,9.05
2023-01-25T19:26:48.743Z,8.40
2023-01-25T19:29:16.171Z,7.60
2023-01-25T19:31:43.172Z,8.43
2023-01-25T19:34:10.423Z,8.88
2023-01-25T19:36:43.737Z,8.98
2023-01-25T19:39:14.495Z,9.25
2023-01-25T19:41:43.993Z,8.98
2023-01-25T19:44:13.800Z,9.02
2023-01-25T19:46:41.005Z,8.32
2023-01-25T19:49:10.701Z,8.57
2023-01-25T19:51:41.355Z,6.65
2023-01-25T19:54:11.391Z,7.05
2023-01-25T19:56:40.973Z,7.43
2023-01-25T19:59:11.576Z,8.07
2023-01-25T20:01:44.119Z,8.30
2023-01-25T20:04:13.721Z,7.68
2023-01-25T20:06:40.862Z,6.90
2023-01-25T20:09:08.561Z,7.85
2023-01-25T20:11:35.838Z,7.45
2023-01-25T20:14:06.185Z,6.65
2023-01-25T20:16:34.859Z,5.28
2023-01-25T20:19:02.944Z,5.88
2023-01-25T20:21:31.395Z,5.30
2023-01-25T20:24:02.623Z,4.97
2023-01-25T20:26:32.626Z,6.60
2023-01-25T20:29:00.605Z,7.47
2023-01-25T20:31:30.932Z,6.85
2023-01-25T20:33:59.598Z,5.70
2023-01-25T20:36:30.321Z,5.60
2023-01-25T20:38:57.872Z,6.18
2023-01-25T20:41:25.045Z,5.50
2023-01-25T20:43:54.783Z,6.22
2023-01-25T20:46:22.066Z,5.95
2023-01-25T20:48:52.088Z,6.53
2023-01-25T20:51:21.470Z,6.07
2023-01-25T20:53:50.246Z,6.25
2023-01-25T20:56:18.638Z,6.25
2023-01-25T20:58:50.381Z,7.57
2023-01-25T21:01:20.106Z,7.30
2023-01-25T21:03:48.347Z,7.18
2023-01-25T21:06:17.624Z,7.60
2023-01-25T21:08:44.870Z,9.20
2023-01-25T21:11:13.376Z,9.02
2023-01-25T21:13:41.209Z,8.82
2023-01-25T21:16:12.366Z,9.00
2023-01-25T21:18:41.139Z,9.43
2023-01-25T21:21:10.082Z,9.05
2023-01-25T21:26:08.070Z,7.78
2023-01-25T21:28:35.310Z,8.30
2023-01-25T21:31:07.547Z,8.43
2023-01-25T21:33:35.391Z,8.20
2023-01-25T21:36:02.522Z,8.70
2023-01-25T21:38:29.843Z,8.95
2023-01-25T21:41:02.071Z,9.18
2023-01-25T21:43:29.615Z,9.52
2023-01-25T21:46:13.481Z,8.32
2023-01-25T21:48:59.234Z,8.63
2023-01-25T21:51:40.125Z,7.47
2023-01-25T21:54:07.567Z,8.48
2023-01-25T21:56:35.919Z,6.80
2023-01-25T21:59:03.332Z,6.63
2023-01-25T22:01:30.324Z,6.95
2023-01-25T22:03:57.692Z,5.35
2023-01-25T22:06:24.659Z,5.75
2023-01-25T22:08:52.443Z,5.47
2023-01-25T22:11:19.520Z,5.53
2023-01-25T22:13:48.087Z,5.72
2023-01-25T22:16:15.199Z,5.63
2023-01-25T22:18:43.503Z,5.90
2023-01-25T22:21:15.528Z,6.10
2023-01-25T22:23:42.873Z,6.60
2023-01-25T22:26:11.265Z,7.10
2023-01-25T22:28:45.953Z,6.63
2023-01-25T22:31:15.230Z,6.80
2023-01-25T22:33:45.520Z,6.78
2023-01-25T22:36:14.291Z,7.10
2023-01-25T22:38:41.822Z,5.88
2023-01-25T22:41:09.962Z,5.50
2023-01-25T22:43:37.870Z,5.70
2023-01-25T22:46:06.212Z,5.32
2023-01-25T22:48:35.220Z,5.35
2023-01-25T22:51:02.965Z,5.47
2023-01-25T22:53:30.874Z,5.45
2023-01-25T22:56:02.823Z,6.18
2023-01-25T22:58:30.385Z,6.53
2023-01-25T23:00:57.528Z,5.35
2023-01-25T23:03:24.982Z,6.15
2023-01-25T23:06:00.265Z,5.80
2023-01-25T23:08:30.117Z,5.80
2023-01-25T23:11:00.940Z,7.30
2023-01-25T23:13:28.748Z,8.98
2023-01-25T23:15:56.319Z,10.15
2023-01-25T23:18:42.171Z,10.00
2023-01-25T23:21:10.463Z,8.52
2023-01-25T23:23:37.657Z,6.57
2023-01-25T23:26:04.849Z,6.35
2023-01-25T23:28:32.361Z,6.20
2023-01-25T23:31:21.437Z,6.55
2023-01-25T23:33:50.677Z,7.85
2023-01-25T23:36:20.382Z,9.05
2023-01-25T23:38:48.827Z,9.30
2023-01-25T23:41:16.871Z,8.93
2023-01-25T23:43:44.279Z,8.98
2023-01-25T23:46:14.256Z,8.50
2023-01-25T23:48:42.062Z,8.60
2023-01-25T23:51:11.021Z,8.55
2023-01-25T23:56:08.736Z,6.72
2023-01-25T23:58:36.904Z,7.53
